Time;durP1;ratioP1;P1;durP2;ratioP2;P2;SDS_P1;SDS_P2;PMS_P1;PMS_P2;Temp;Humidity;BMP_temperature;BMP_pressure;BME280_temperature;BME280_humidity;BME280_pressure;Samples;Min_cycle;Max_cycle;Signal;HPM_P1;HPM_P2
2023/11/27 00:01:42;;;;;;;2.22;1.80;;;;;;;0.01;64.81;98881.75;5041375;28;20024;-94
2023/11/27 00:04:14;;;;;;;3.03;1.83;;;;;;;0.09;64.21;98890.25;5024807;28;20028;-93
2023/11/27 00:06:39;;;;;;;4.88;2.20;;;;;;;0.05;64.80;98902.28;5028092;28;20073;-94
2023/11/27 00:09:05;;;;;;;2.88;1.80;;;;;;;0.15;63.48;98901.84;4975915;28;20065;-93
2023/11/27 00:11:30;;;;;;;2.80;1.70;;;;;;;0.15;63.43;98928.31;4945186;28;20361;-95
2023/11/27 00:13:56;;;;;;;2.47;1.80;;;;;;;0.23;64.17;98924.59;4975881;28;20041;-94
2023/11/27 00:16:24;;;;;;;3.67;2.10;;;;;;;0.25;63.28;98915.44;4943510;28;20134;-96
2023/11/27 00:18:52;;;;;;;2.55;1.88;;;;;;;0.22;62.87;98915.84;4944354;28;20022;-93
2023/11/27 00:21:19;;;;;;;2.63;1.73;;;;;;;0.17;63.36;98911.19;4944409;28;20506;-94
2023/11/27 00:23:45;;;;;;;3.47;1.90;;;;;;;0.17;61.78;98924.44;4943682;28;20446;-92
2023/11/27 00:26:11;;;;;;;5.38;1.90;;;;;;;0.23;63.64;98927.22;4975123;28;20076;-92
2023/11/27 00:28:40;;;;;;;2.45;1.70;;;;;;;0.18;63.60;98933.97;4959243;28;20066;-93
2023/11/27 00:31:09;;;;;;;3.22;1.98;;;;;;;0.11;63.07;98933.22;4960312;28;20038;-93
2023/11/27 00:33:36;;;;;;;3.30;1.92;;;;;;;0.04;63.42;98927.13;4944627;28;20037;-92
2023/11/27 00:36:02;;;;;;;4.65;1.60;;;;;;;0.07;63.43;98937.31;4944065;28;20499;-91
2023/11/27 00:38:28;;;;;;;2.63;1.65;;;;;;;0.07;64.15;98945.25;4943334;28;20434;-94
2023/11/27 00:40:53;;;;;;;3.00;2.13;;;;;;;-0.04;63.56;98932.69;4943867;28;20042;-92
2023/11/27 00:43:19;;;;;;;3.40;1.95;;;;;;;0.08;64.67;98975.97;4944173;28;20151;-91
2023/11/27 00:45:45;;;;;;;3.53;1.80;;;;;;;0.07;63.58;98976.19;4943670;28;20420;-91
2023/11/27 00:48:11;;;;;;;2.80;1.60;;;;;;;-0.12;62.85;98969.97;4959596;28;20041;-96
2023/11/27 00:50:41;;;;;;;1.95;1.70;;;;;;;-0.25;63.86;98968.97;4943787;28;20479;-92
2023/11/27 00:53:06;;;;;;;2.60;1.90;;;;;;;-0.12;65.13;98980.56;4943397;28;20046;-92
2023/11/27 00:55:32;;;;;;;3.20;1.92;;;;;;;-0.16;64.95;98979.34;4944525;28;20029;-95
2023/11/27 00:57:58;;;;;;;2.38;1.60;;;;;;;-0.31;62.71;98961.03;4975207;28;20027;-93
2023/11/27 01:00:24;;;;;;;4.03;1.70;;;;;;;-0.35;64.49;98958.03;4943105;28;20481;-93
2023/11/27 01:02:53;;;;;;;3.20;2.03;;;;;;;-0.29;64.01;98962.47;4960460;28;20030;-93
2023/11/27 01:05:19;;;;;;;3.88;1.90;;;;;;;-0.32;63.26;98973.47;4959810;28;20026;-93
2023/11/27 01:07:44;;;;;;;4.55;2.17;;;;;;;-0.22;64.19;98984.44;4943396;28;20053;-92
2023/11/27 01:10:10;;;;;;;3.55;1.67;;;;;;;-0.29;63.36;98985.47;4974549;28;20030;-92
2023/11/27 01:12:38;;;;;;;2.53;1.90;;;;;;;-0.30;62.97;99000.53;4942919;28;20475;-91
2023/11/27 01:15:07;;;;;;;2.50;2.00;;;;;;;-0.32;62.91;98985.88;4943893;28;20053;-92
2023/11/27 01:17:33;;;;;;;2.58;1.92;;;;;;;-0.27;63.99;98983.41;4959804;28;20026;-93
2023/11/27 01:20:01;;;;;;;2.30;1.55;;;;;;;-0.37;63.37;98994.44;4943039;28;20030;-93
2023/11/27 01:22:26;;;;;;;4.50;1.90;;;;;;;-0.24;62.70;99007.63;4958705;28;20034;-93
2023/11/27 01:24:52;;;;;;;2.63;1.42;;;;;;;-0.49;63.49;98993.44;4974645;28;20030;-92
2023/11/27 01:27:18;;;;;;;2.75;1.88;;;;;;;-0.38;62.52;98992.81;4942812;28;20026;-93
2023/11/27 01:29:43;;;;;;;2.65;1.70;;;;;;;-0.46;63.58;98993.03;4974680;28;20042;-93
2023/11/27 01:32:09;;;;;;;3.45;1.80;;;;;;;-0.41;62.97;98983.47;4975569;28;20480;-92
2023/11/27 01:34:35;;;;;;;2.85;1.77;;;;;;;-0.21;63.27;99023.09;4975567;28;20125;-92
2023/11/27 01:37:01;;;;;;;2.88;2.00;;;;;;;-0.24;63.00;99009.47;4958646;28;20438;-93
2023/11/27 01:39:27;;;;;;;3.00;1.63;;;;;;;-0.42;63.37;98991.59;4943411;28;20045;-92
2023/11/27 01:41:52;;;;;;;2.90;2.03;;;;;;;-0.36;62.42;98998.69;4946305;28;20495;-92
2023/11/27 01:44:18;;;;;;;1.95;1.52;;;;;;;-0.38;62.91;98998.09;4978546;28;20076;-93
2023/11/27 01:46:48;;;;;;;3.63;2.40;;;;;;;-0.26;62.07;99007.03;4946489;28;20064;-94
2023/11/27 01:49:20;;;;;;;2.97;1.88;;;;;;;-0.32;62.83;99002.56;4947836;28;20208;-93
2023/11/27 01:51:46;;;;;;;2.75;2.03;;;;;;;-0.37;63.78;98999.75;4947564;28;20435;-93
2023/11/27 01:54:11;;;;;;;2.90;1.90;;;;;;;-0.35;62.87;98994.22;4961929;28;20121;-92
2023/11/27 01:56:37;;;;;;;3.97;1.73;;;;;;;-0.37;63.31;98990.97;4946107;28;20034;-92
2023/11/27 01:59:10;;;;;;;2.33;1.45;;;;;;;-0.31;63.03;99009.50;4977609;28;20037;-92
2023/11/27 02:01:35;;;;;;;3.13;1.80;;;;;;;-0.22;62.95;99013.53;4948278;28;20026;-93
2023/11/27 02:04:02;;;;;;;3.63;1.90;;;;;;;-0.34;63.21;98996.66;4946541;28;20450;-93
2023/11/27 02:06:28;;;;;;;2.63;1.90;;;;;;;-0.23;63.12;99025.16;4945950;28;20026;-93
2023/11/27 02:08:56;;;;;;;4.78;1.75;;;;;;;-0.16;61.70;99030.41;4946994;28;20129;-93
2023/11/27 02:11:30;;;;;;;2.20;1.75;;;;;;;-0.22;62.16;99024.13;4946730;28;20051;-91
2023/11/27 02:13:55;;;;;;;2.78;1.80;;;;;;;-0.25;61.56;99005.19;4962954;28;20041;-91
2023/11/27 02:16:21;;;;;;;1.70;1.30;;;;;;;-0.06;60.69;99036.09;4977660;28;20048;-92
2023/11/27 02:18:47;;;;;;;3.42;1.80;;;;;;;-0.31;61.59;99021.88;4945555;28;20045;-92
2023/11/27 02:21:12;;;;;;;2.10;1.55;;;;;;;-0.25;62.29;99024.53;4978907;28;20433;-92
2023/11/27 02:23:38;;;;;;;1.83;1.50;;;;;;;-0.48;61.49;99011.75;4977347;28;20047;-92
2023/11/27 02:26:04;;;;;;;2.35;1.65;;;;;;;-0.27;61.62;99045.09;4946436;28;20035;-91
2023/11/27 02:28:30;;;;;;;2.67;1.50;;;;;;;-0.21;60.23;99044.28;4946403;28;20027;-92
2023/11/27 02:30:56;;;;;;;2.63;1.80;;;;;;;-0.42;60.86;99018.03;4977299;28;20027;-92
2023/11/27 02:33:21;;;;;;;2.20;1.80;;;;;;;-0.42;60.41;99025.97;4944881;28;20113;-92
2023/11/27 02:35:48;;;;;;;2.03;1.50;;;;;;;-0.38;60.12;99035.13;4962647;28;20533;-91
2023/11/27 02:38:16;;;;;;;3.10;1.63;;;;;;;-0.39;59.44;99036.16;4945554;28;20030;-92
2023/11/27 02:40:41;;;;;;;2.17;1.65;;;;;;;-0.35;60.46;99055.06;4961933;28;20026;-93
2023/11/27 02:43:07;;;;;;;2.17;1.50;;;;;;;-0.43;59.61;99042.88;4977528;28;20034;-92
2023/11/27 02:45:33;;;;;;;2.65;1.73;;;;;;;-0.52;59.42;99058.16;4944699;28;20031;-93
2023/11/27 02:47:59;;;;;;;1.95;1.45;;;;;;;-0.70;59.33;99023.56;4945660;28;20553;-92
2023/11/27 02:50:24;;;;;;;4.18;1.98;;;;;;;-0.71;60.79;99041.25;4977202;28;20030;-92
2023/11/27 02:52:50;;;;;;;2.17;1.40;;;;;;;-0.75;60.12;99020.72;4961013;28;20492;-92
2023/11/27 02:55:17;;;;;;;1.73;1.50;;;;;;;-0.69;60.76;99054.25;4945454;28;20114;-91
2023/11/27 02:57:42;;;;;;;2.17;1.90;;;;;;;-0.75;60.71;99049.78;4976959;28;20077;-92
2023/11/27 03:00:10;;;;;;;3.80;1.58;;;;;;;-0.91;60.34;99037.81;4945752;28;20121;-92
2023/11/27 03:02:36;;;;;;;2.00;1.55;;;;;;;-0.78;61.01;99069.53;5028259;28;20491;-92
2023/11/27 03:05:05;;;;;;;3.55;1.75;;;;;;;-0.86;61.11;99056.50;4976993;28;20052;-91
2023/11/27 03:07:30;;;;;;;2.15;1.50;;;;;;;-0.79;60.95;99085.56;4962122;28;20046;-92
2023/11/27 03:09:56;;;;;;;2.17;1.88;;;;;;;-0.86;62.03;99075.81;4944974;28;20068;-92
2023/11/27 03:12:21;;;;;;;2.30;1.52;;;;;;;-0.70;61.13;99090.47;4945103;28;20034;-93
2023/11/27 03:14:47;;;;;;;3.35;1.88;;;;;;;-0.67;61.45;99090.06;4945545;28;20030;-93
2023/11/27 03:17:17;;;;;;;2.28;1.60;;;;;;;-0.72;61.10;99078.47;4945312;28;20029;-92
2023/11/27 03:19:43;;;;;;;2.33;1.48;;;;;;;-0.75;62.71;99105.31;4961535;28;20037;-92
2023/11/27 03:22:08;;;;;;;2.67;1.63;;;;;;;-0.75;62.14;99087.59;4945197;28;20034;-92
2023/11/27 03:24:34;;;;;;;2.63;2.03;;;;;;;-0.76;62.00;99080.69;4944714;28;20059;-93
2023/11/27 03:27:00;;;;;;;3.83;1.83;;;;;;;-0.72;60.82;99079.28;4977081;28;20031;-94
2023/11/27 03:29:25;;;;;;;2.50;1.80;;;;;;;-0.75;61.25;99084.97;4944551;28;20113;-93
2023/11/27 03:31:51;;;;;;;3.92;1.70;;;;;;;-0.58;61.03;99105.72;4944909;28;20076;-93
2023/11/27 03:34:16;;;;;;;3.53;1.95;;;;;;;-0.73;60.55;99095.34;4944925;28;20033;-93
2023/11/27 03:36:42;;;;;;;2.95;1.70;;;;;;;-0.77;61.75;99091.47;4944810;28;20064;-92
2023/11/27 03:39:07;;;;;;;2.25;1.58;;;;;;;-0.80;61.96;99095.34;4944559;28;20075;-94
2023/11/27 03:41:33;;;;;;;3.13;2.08;;;;;;;-0.87;62.29;99105.06;4944930;28;20090;-93
2023/11/27 03:44:00;;;;;;;3.80;1.90;;;;;;;-0.71;62.34;99125.84;4960085;28;20042;-92
2023/11/27 03:46:26;;;;;;;3.08;1.67;;;;;;;-0.79;61.96;99106.72;4976759;28;20022;-91
2023/11/27 03:48:52;;;;;;;2.40;1.90;;;;;;;-0.77;61.46;99108.13;4976346;28;20052;-93
2023/11/27 03:51:18;;;;;;;2.53;1.63;;;;;;;-0.79;61.69;99107.53;4976461;28;20072;-93
2023/11/27 03:53:44;;;;;;;2.53;1.73;;;;;;;-0.88;62.45;99084.94;4978472;28;20487;-92
2023/11/27 03:56:12;;;;;;;2.58;1.73;;;;;;;-0.76;61.79;99107.13;5043805;28;20030;-92
2023/11/27 03:58:41;;;;;;;3.80;2.20;;;;;;;-0.93;61.60;99106.72;5045041;28;20040;-94
2023/11/27 04:01:07;;;;;;;3.88;1.80;;;;;;;-0.72;61.98;99124.22;5045004;28;20038;-92
2023/11/27 04:03:32;;;;;;;2.70;1.90;;;;;;;-0.82;61.00;99111.38;5026261;28;20047;-94
2023/11/27 04:05:58;;;;;;;2.22;1.70;;;;;;;-0.90;62.78;99113.41;5043742;28;20133;-92
2023/11/27 04:08:24;;;;;;;2.83;1.90;;;;;;;-0.89;62.24;99125.63;5043338;28;20469;-92
2023/11/27 04:10:50;;;;;;;2.08;1.58;;;;;;;-0.77;60.89;99141.69;5044277;28;20026;-93
2023/11/27 04:13:16;;;;;;;3.42;2.13;;;;;;;-0.79;62.04;99147.16;5044091;28;20053;-93
2023/11/27 04:15:44;;;;;;;4.38;1.90;;;;;;;-0.78;62.43;99154.09;5042801;28;20045;-94
2023/11/27 04:18:09;;;;;;;2.53;1.92;;;;;;;-0.87;61.19;99140.25;5043661;28;20065;-92
2023/11/27 04:20:35;;;;;;;2.53;1.90;;;;;;;-0.84;62.79;99163.63;5027166;28;20026;-93
2023/11/27 04:23:00;;;;;;;2.85;2.00;;;;;;;-0.79;62.53;99173.59;5043467;28;20105;-93
2023/11/27 04:25:29;;;;;;;2.67;1.55;;;;;;;-0.88;61.59;99149.19;5044728;28;20064;-92
2023/11/27 04:27:55;;;;;;;2.45;1.65;;;;;;;-0.92;60.68;99152.44;5043166;28;20022;-92
2023/11/27 04:30:21;;;;;;;3.20;1.90;;;;;;;-0.91;61.34;99154.09;5044211;28;20030;-93
2023/11/27 04:32:46;;;;;;;2.03;1.67;;;;;;;-0.90;62.15;99159.16;5027992;28;20031;-90
2023/11/27 04:35:12;;;;;;;2.95;1.88;;;;;;;-0.97;63.38;99176.81;5044205;28;20038;-93
2023/11/27 04:37:39;;;;;;;2.53;1.80;;;;;;;-1.01;61.18;99162.38;5027108;28;20057;-92
2023/11/27 04:40:10;;;;;;;2.53;1.70;;;;;;;-0.94;61.88;99176.41;5043456;28;20072;-93
2023/11/27 04:42:35;;;;;;;3.50;1.73;;;;;;;-0.95;61.76;99166.06;5041445;28;20048;-92
2023/11/27 04:45:01;;;;;;;2.22;1.52;;;;;;;-0.90;60.97;99171.56;5044713;28;20054;-92
2023/11/27 04:47:27;;;;;;;3.75;2.33;;;;;;;-0.88;60.81;99172.97;5044205;28;20030;-93
2023/11/27 04:49:52;;;;;;;2.78;2.00;;;;;;;-0.82;61.42;99195.97;5044402;28;20048;-92
2023/11/27 04:52:18;;;;;;;4.07;2.03;;;;;;;-0.82;61.42;99182.75;5043106;28;20125;-91
2023/11/27 04:54:44;;;;;;;2.47;2.00;;;;;;;-0.82;61.71;99195.16;5026849;28;20038;-91
2023/11/27 04:57:12;;;;;;;2.75;1.98;;;;;;;-0.82;61.39;99185.41;5043991;28;20026;-91
2023/11/27 04:59:38;;;;;;;3.08;2.10;;;;;;;-1.03;60.69;99151.19;5042555;28;20030;-92
2023/11/27 05:02:03;;;;;;;2.65;1.88;;;;;;;-0.86;61.31;99176.25;4982194;28;20056;-92
2023/11/27 05:04:48;;;;;;;2.80;2.10;;;;;;;-1.03;62.05;99153.84;4944346;28;20086;-92
2023/11/27 05:07:21;;;;;;;3.38;1.83;;;;;;;-1.05;61.92;99161.16;4952301;28;20459;-92
2023/11/27 05:09:47;;;;;;;2.83;1.90;;;;;;;-0.90;61.33;99190.84;4960346;28;20541;-93
2023/11/27 05:12:15;;;;;;;2.65;1.92;;;;;;;-0.99;61.24;99186.78;4944465;28;20070;-93
2023/11/27 05:14:44;;;;;;;2.50;1.83;;;;;;;-0.98;61.73;99192.88;5030978;28;20079;-93
2023/11/27 05:17:10;;;;;;;4.25;2.78;;;;;;;-1.17;62.31;99181.22;5032587;28;20026;-94
2023/11/27 05:19:41;;;;;;;3.42;2.72;;;;;;;-1.11;63.65;99186.53;4949887;28;20022;-94
2023/11/27 05:22:10;;;;;;;3.00;2.15;;;;;;;-1.05;62.63;99185.72;4948877;28;20030;-96
2023/11/27 05:24:41;;;;;;;3.35;2.63;;;;;;;-0.94;64.07;99209.97;4967370;28;20038;-96
2023/11/27 05:27:07;;;;;;;3.65;2.55;;;;;;;-1.02;63.45;99190.63;4967698;28;20057;-95
2023/11/27 05:29:32;;;;;;;4.45;2.95;;;;;;;-1.05;63.21;99183.09;4965563;28;20034;-94
2023/11/27 05:32:10;;;;;;;3.17;2.33;;;;;;;-1.02;62.75;99193.28;4964785;28;20117;-92
2023/11/27 05:34:36;;;;;;;5.18;3.00;;;;;;;-0.98;63.08;99192.88;5029936;28;20042;-92
2023/11/27 05:37:02;;;;;;;4.20;2.65;;;;;;;-0.90;63.45;99204.06;4968435;28;20034;-92
2023/11/27 05:39:37;;;;;;;3.30;2.30;;;;;;;-0.77;62.90;99218.34;5035148;28;20061;-93
2023/11/27 05:42:03;;;;;;;3.00;2.17;;;;;;;-0.81;63.32;99212.63;4948538;28;20491;-93
2023/11/27 05:44:29;;;;;;;4.43;3.05;;;;;;;-0.88;64.39;99201.25;4947161;28;20030;-93
2023/11/27 05:46:58;;;;;;;4.57;2.70;;;;;;;-0.81;63.30;99223.22;4958842;28;20030;-92
2023/11/27 05:49:30;;;;;;;2.90;2.00;;;;;;;-0.72;62.85;99222.03;4956343;28;20076;-93
2023/11/27 05:52:01;;;;;;;6.45;2.35;;;;;;;-0.68;62.35;99231.19;4937688;28;20038;-96
2023/11/27 05:54:29;;;;;;;4.45;2.80;;;;;;;-0.60;61.95;99251.38;4943076;28;20527;-94
2023/11/27 05:56:55;;;;;;;3.60;2.38;;;;;;;-0.42;62.51;99266.66;4943193;28;20030;-94
2023/11/27 05:59:21;;;;;;;3.33;2.35;;;;;;;-0.48;62.72;99248.94;4935600;28;20057;-93
2023/11/27 06:01:58;;;;;;;6.95;3.35;;;;;;;-0.57;62.57;99256.25;4965880;28;20064;-93
2023/11/27 06:04:23;;;;;;;3.78;2.28;;;;;;;-0.42;62.56;99256.06;4981682;28;20119;-93
2023/11/27 06:06:49;;;;;;;7.97;3.33;;;;;;;-0.25;60.34;99275.03;4946578;28;20579;-94
2023/11/27 06:09:32;;;;;;;7.35;3.85;;;;;;;-0.42;61.48;99246.31;5009440;28;20066;-93
2023/11/27 06:12:20;;;;;;;;;;;;;;;;;;;;;
2023/11/27 06:15:15;;;;;;;3.33;2.50;;;;;;;-0.05;59.12;99269.78;4991460;28;20032;-91
2023/11/27 06:18:07;;;;;;;4.13;2.80;;;;;;;-0.24;61.75;99235.16;4980988;28;20065;-91
2023/11/27 06:20:32;;;;;;;4.28;2.47;;;;;;;-0.08;60.21;99241.91;4995967;28;20021;-91
2023/11/27 06:23:16;;;;;;;6.20;3.47;;;;;;;0.08;59.25;99267.13;4981180;28;20021;-91
2023/11/27 06:25:46;;;;;;;5.55;2.85;;;;;;;0.00;59.93;99243.53;4965138;28;20113;-91
2023/11/27 06:28:43;;;;;;;3.10;2.40;;;;;;;0.27;59.67;99270.84;5039832;28;20037;-94
2023/11/27 06:31:35;;;;;;;4.60;2.75;;;;;;;0.03;59.84;99242.31;4975513;28;20030;-91
2023/11/27 06:34:00;;;;;;;5.70;2.45;;;;;;;0.05;59.74;99250.88;4987229;28;20054;-89
2023/11/27 06:36:26;;;;;;;6.53;2.60;;;;;;;0.05;59.53;99254.31;4977407;28;20443;-90
2023/11/27 06:38:57;;;;;;;3.28;2.13;;;;;;;0.20;58.71;99270.81;4989346;28;20160;-90
2023/11/27 06:41:25;;;;;;;4.65;3.08;;;;;;;0.15;58.94;99267.16;5043382;28;20038;-94
2023/11/27 06:43:54;;;;;;;4.95;2.00;;;;;;;0.30;57.78;99269.59;4993078;28;20484;-91
2023/11/27 06:46:22;;;;;;;4.32;2.10;;;;;;;0.24;59.06;99273.88;4963157;28;20026;-90
2023/11/27 06:48:50;;;;;;;4.38;2.85;;;;;;;0.44;60.20;99292.41;4981257;28;20114;-90
2023/11/27 06:51:17;;;;;;;5.35;2.35;;;;;;;0.53;56.96;99279.78;4983153;28;20030;-91
2023/11/27 06:53:45;;;;;;;3.55;2.20;;;;;;;0.52;56.64;99284.28;5010178;28;20034;-93
2023/11/27 06:56:11;;;;;;;3.88;2.40;;;;;;;0.53;58.68;99290.38;4982303;28;20030;-90
2023/11/27 06:58:37;;;;;;;3.80;2.40;;;;;;;0.72;58.44;99312.56;4996344;28;20514;-91
2023/11/27 07:01:06;;;;;;;3.95;2.00;;;;;;;0.82;56.91;99320.91;4974070;28;20555;-94
2023/11/27 07:03:31;;;;;;;4.47;2.10;;;;;;;0.70;58.82;99298.72;4988461;28;20025;-95
2023/11/27 07:06:03;;;;;;;3.92;2.40;;;;;;;0.97;56.46;99310.88;5012398;28;20032;-91
2023/11/27 07:08:29;;;;;;;4.63;2.60;;;;;;;0.88;56.08;99293.59;5045419;28;20040;-91
2023/11/27 07:11:15;;;;;;;4.30;2.10;;;;;;;0.95;57.19;99301.50;5039300;28;20038;-91
2023/11/27 07:13:59;;;;;;;2.97;2.13;;;;;;;1.13;57.18;99309.63;5030150;28;20362;-94
2023/11/27 07:16:26;;;;;;;5.50;2.38;;;;;;;0.88;56.70;99301.53;5042127;28;20117;-92
2023/11/27 07:18:58;;;;;;;4.85;3.33;;;;;;;1.11;57.29;99313.53;5046283;28;20035;-91
2023/11/27 07:21:29;;;;;;;;;;;;;;;1.36;55.69;99332.22;5060761;28;20103;-92
2023/11/27 07:24:03;;;;;;;2.93;2.10;;;;;;;1.18;56.49;99309.84;5211681;23;19920;-95
2023/11/27 07:26:30;;;;;;;2.72;1.90;;;;;;;1.34;57.08;99319.16;5083377;28;20130;-86
2023/11/27 07:28:59;;;;;;;3.60;2.00;;;;;;;1.45;56.19;99304.41;5098441;28;20025;-89
2023/11/27 07:31:29;;;;;;;2.88;1.80;;;;;;;1.49;57.66;99302.16;5054845;28;20024;-85
2023/11/27 07:33:56;;;;;;;3.25;2.20;;;;;;;1.60;57.27;99320.91;5076554;28;20060;-86
2023/11/27 07:36:23;;;;;;;3.40;2.25;;;;;;;1.77;56.63;99325.72;5088150;28;20036;-91
2023/11/27 07:38:49;;;;;;;5.53;2.53;;;;;;;2.02;57.08;99345.16;5083350;28;20035;-92
2023/11/27 07:41:23;;;;;;;3.13;1.90;;;;;;;2.11;54.99;99360.84;5084047;28;20031;-91
2023/11/27 07:44:23;;;;;;;7.28;6.50;;;;;;;2.12;56.73;99360.66;5082309;28;20032;-91
2023/11/27 07:58:16;;;;;;;5.03;2.28;;;;;;;2.11;56.51;99343.06;4927196;29;20084;-93
2023/11/27 08:00:42;;;;;;;4.22;2.30;;;;;;;1.99;55.46;99334.16;4954504;28;20060;-92
2023/11/27 08:03:08;;;;;;;3.03;1.88;;;;;;;2.25;54.80;99365.06;4985583;28;20040;-95
2023/11/27 08:05:35;;;;;;;3.08;2.22;;;;;;;2.27;55.38;99372.81;5004389;28;20026;-93
2023/11/27 08:08:12;;;;;;;3.60;2.67;;;;;;;2.34;55.50;99362.97;4971865;28;20034;-94
2023/11/27 08:10:38;;;;;;;4.30;2.70;;;;;;;2.26;55.91;99339.31;4982009;28;20411;-89
2023/11/27 08:13:04;;;;;;;3.05;2.20;;;;;;;2.48;54.46;99359.19;4977495;28;20025;-91
2023/11/27 08:15:30;;;;;;;3.50;1.85;;;;;;;2.49;54.04;99342.22;4963893;28;20049;-93
2023/11/27 08:17:56;;;;;;;3.63;2.55;;;;;;;2.65;54.17;99340.84;4976124;28;20105;-92
2023/11/27 08:20:38;;;;;;;4.57;2.40;;;;;;;2.63;55.35;99340.25;4982627;28;20088;-92
2023/11/27 08:23:09;;;;;;;4.33;2.67;;;;;;;2.79;54.21;99357.50;4985592;28;20065;-92
2023/11/27 08:25:37;;;;;;;3.70;2.25;;;;;;;2.97;54.34;99362.88;4967584;28;20030;-90
2023/11/27 08:28:30;;;;;;;3.42;2.30;;;;;;;2.72;52.94;99330.16;4981716;28;20025;-92
2023/11/27 08:30:56;;;;;;;4.88;2.85;;;;;;;2.80;54.67;99336.03;4981678;28;20412;-91
2023/11/27 08:33:30;;;;;;;3.67;2.40;;;;;;;2.91;53.42;99344.31;4990739;28;20048;-92
2023/11/27 08:36:02;;;;;;;100.43;33.15;;;;;;;2.90;53.88;99343.47;4971642;28;20100;-90
2023/11/27 08:38:35;;;;;;;9.13;4.97;;;;;;;2.87;52.50;99332.50;4967622;28;20030;-92
2023/11/27 08:41:03;;;;;;;5.68;3.17;;;;;;;2.80;53.82;99343.16;4967972;28;20033;-93
2023/11/27 08:43:33;;;;;;;3.35;2.20;;;;;;;2.90;55.17;99334.69;4968497;28;20446;-90
2023/11/27 08:45:59;;;;;;;3.63;2.40;;;;;;;2.77;53.70;99333.78;4966303;28;20511;-91
2023/11/27 08:48:58;;;;;;;4.13;2.00;;;;;;;2.86;54.03;99328.19;4984760;28;20093;-93
2023/11/27 08:52:12;;;;;;;3.40;1.92;;;;;;;3.02;52.62;99347.06;4920417;29;20091;-93
2023/11/27 08:58:15;;;;;;;2.38;1.80;;;;;;;3.25;52.42;99358.91;4799411;29;20503;-92
2023/11/27 09:01:04;;;;;;;8.00;4.63;;;;;;;3.03;52.92;99334.59;4796520;29;20078;-92
2023/11/27 09:03:33;;;;;;;7.13;3.90;;;;;;;2.81;53.60;99328.84;4819774;29;20038;-92
2023/11/27 09:06:27;;;;;;;5.95;2.30;;;;;;;2.86;52.82;99330.84;4873109;29;20039;-92
2023/11/27 09:08:55;;;;;;;2.65;2.00;;;;;;;2.91;52.58;99334.50;4946653;29;20028;-93
2023/11/27 09:12:15;;;;;;;2.90;2.15;;;;;;;3.08;52.29;99339.25;4995381;27;3889683;-91
2023/11/27 09:14:49;;;;;;;4.32;2.20;;;;;;;3.17;51.93;99344.03;5067997;28;20499;-93
2023/11/27 09:17:18;;;;;;;4.15;2.17;;;;;;;3.17;50.64;99333.38;5073754;28;20028;-95
2023/11/27 09:19:47;;;;;;;10.60;5.00;;;;;;;3.12;51.32;99313.81;5079367;28;20032;-92
2023/11/27 09:22:16;;;;;;;4.28;2.67;;;;;;;3.04;52.09;99307.75;5064100;28;20058;-94
2023/11/27 09:24:42;;;;;;;9.57;5.57;;;;;;;3.17;51.18;99305.97;5064844;28;20035;-92
2023/11/27 09:27:24;;;;;;;4.25;2.50;;;;;;;3.09;52.41;99315.06;5063738;28;20030;-96
2023/11/27 09:29:52;;;;;;;;;;;;;;;3.17;52.81;99321.94;5068034;28;20157;-92
2023/11/27 09:32:21;;;;;;;4.07;2.10;;;;;;;3.18;51.46;99302.31;5081340;28;19915;-94
2023/11/27 09:34:46;;;;;;;2.70;2.20;;;;;;;3.16;51.60;99310.50;5064684;28;20043;-92
2023/11/27 09:37:15;;;;;;;5.15;2.47;;;;;;;3.11;52.15;99304.22;5062808;28;20024;-94
2023/11/27 09:40:16;;;;;;;2.95;1.90;;;;;;;3.22;51.21;99295.50;5064334;28;20591;-93
2023/11/27 09:42:45;;;;;;;3.75;1.92;;;;;;;3.25;51.34;99313.66;5077612;28;20405;-90
2023/11/27 09:45:11;;;;;;;7.70;2.58;;;;;;;3.21;52.64;99321.28;5062792;28;20115;-91
2023/11/27 09:47:43;;;;;;;2.50;1.70;;;;;;;3.23;51.57;99311.22;5063824;28;20038;-90
2023/11/27 09:50:15;;;;;;;6.63;3.47;;;;;;;3.38;52.01;99323.34;5071055;28;20108;-90
2023/11/27 09:53:08;;;;;;;4.13;2.42;;;;;;;3.60;49.73;99345.81;5065165;28;20032;-90
2023/11/27 09:55:38;;;;;;;4.50;2.92;;;;;;;3.35;49.85;99313.97;5058275;28;20060;-93
2023/11/27 09:58:10;;;;;;;4.45;2.75;;;;;;;3.47;49.29;99335.34;5041862;28;20177;-93
2023/11/27 10:00:36;;;;;;;2.47;1.88;;;;;;;3.36;50.63;99322.75;5044952;28;20024;-92
2023/11/27 10:03:11;;;;;;;5.53;2.85;;;;;;;3.38;49.13;99326.84;5042861;28;20480;-94
2023/11/27 10:09:14;;;;;;;4.80;1.95;;;;;;;3.44;50.10;99336.59;5031246;28;20116;-92
2023/11/27 10:11:41;;;;;;;2.95;2.00;;;;;;;3.59;49.79;99346.88;5016469;28;20046;-94
2023/11/27 10:14:36;;;;;;;2.78;1.67;;;;;;;3.68;49.34;99352.69;5067502;28;20050;-93
2023/11/27 10:17:06;;;;;;;5.40;2.42;;;;;;;3.59;49.03;99314.09;5071536;28;20075;-94
2023/11/27 10:19:37;;;;;;;4.13;2.50;;;;;;;3.69;47.64;99330.34;5078286;28;20047;-95
2023/11/27 10:22:02;;;;;;;9.60;2.88;;;;;;;3.52;48.92;99308.84;5063656;28;20423;-92
2023/11/27 10:24:33;;;;;;;2.38;1.45;;;;;;;3.45;47.18;99292.16;5057688;28;20038;-94
2023/11/27 10:27:31;;;;;;;;;;;;;;;;;;;;;
2023/11/27 10:29:58;;;;;;;5.35;2.08;;;;;;;3.69;48.16;99309.03;5072049;28;20119;-93
2023/11/27 10:32:24;;;;;;;2.40;1.60;;;;;;;3.65;47.30;99289.22;5054030;28;20453;-92
2023/11/27 10:35:00;;;;;;;4.85;2.30;;;;;;;3.69;46.93;99297.56;5055735;28;20027;-93
2023/11/27 10:37:39;;;;;;;3.05;2.05;;;;;;;3.60;48.03;99287.25;5052123;28;20039;-93
2023/11/27 10:40:13;;;;;;;3.58;1.65;;;;;;;3.63;47.17;99292.13;5050682;28;20456;-93
2023/11/27 10:42:41;;;;;;;11.25;5.38;;;;;;;3.67;47.56;99291.66;5051761;28;20033;-90
2023/11/27 10:45:10;;;;;;;4.03;2.33;;;;;;;3.69;49.15;99279.75;5089671;28;20484;-91
2023/11/27 10:48:09;;;;;;;3.08;1.92;;;;;;;3.71;47.75;99295.50;5067363;28;20019;-92
2023/11/27 10:51:04;;;;;;;1.70;1.25;;;;;;;3.93;47.32;99317.94;5076348;28;20031;-89
2023/11/27 10:53:44;;;;;;;;;;;;;;;;;;;;;
2023/11/27 10:56:48;;;;;;;5.82;2.90;;;;;;;4.07;49.62;99334.56;5005048;28;20049;-91
2023/11/27 10:59:22;;;;;;;4.55;2.15;;;;;;;3.95;49.39;99317.72;5007425;28;20033;-90
2023/11/27 11:02:04;;;;;;;5.05;2.47;;;;;;;4.01;48.66;99300.84;4990736;28;20435;-90
2023/11/27 11:04:41;;;;;;;3.92;2.13;;;;;;;3.97;47.44;99318.31;5008847;28;20068;-94
2023/11/27 11:07:32;;;;;;;4.57;2.10;;;;;;;4.00;47.82;99305.31;5019635;28;20076;-94
2023/11/27 11:09:59;;;;;;;3.88;1.90;;;;;;;3.96;46.68;99303.34;5021302;28;20025;-94
2023/11/27 11:13:18;;;;;;;;;;;;;;;;;;;;;
2023/11/27 11:16:10;;;;;;;5.53;2.90;;;;;;;3.95;47.44;99304.41;4983034;28;20432;-94
2023/11/27 11:22:59;;;;;;;4.43;2.00;;;;;;;4.00;47.00;99291.22;4998508;28;20491;-89
2023/11/27 11:25:46;;;;;;;3.70;1.63;;;;;;;4.23;46.66;99317.94;4964261;28;20530;-94
2023/11/27 11:29:11;;;;;;;6.70;2.85;;;;;;;4.28;46.96;99308.44;4966677;28;20790;-94
2023/11/27 11:35:30;;;;;;;3.55;2.20;;;;;;;4.22;48.34;99310.97;4925661;28;20046;-93
2023/11/27 11:37:58;;;;;;;4.03;2.55;;;;;;;4.14;47.55;99297.97;4962996;28;20534;-92
2023/11/27 11:40:36;;;;;;;4.97;2.50;;;;;;;4.13;47.72;99296.34;5023260;28;20036;-93
2023/11/27 11:43:15;;;;;;;4.28;2.38;;;;;;;4.10;49.46;99288.81;5061091;28;20035;-93
2023/11/27 11:45:45;;;;;;;3.38;2.28;;;;;;;4.19;48.68;99306.09;5037279;28;20061;-91
2023/11/27 11:48:14;;;;;;;5.18;2.88;;;;;;;4.21;49.87;99288.03;5027193;28;20414;-90
2023/11/27 11:50:43;;;;;;;4.22;2.47;;;;;;;4.25;47.80;99294.53;5028457;28;20055;-91
2023/11/27 11:53:37;;;;;;;3.83;2.35;;;;;;;4.19;48.36;99270.63;5029654;28;20067;-92
2023/11/27 11:56:05;;;;;;;13.70;2.10;;;;;;;4.35;45.45;99282.47;5042890;28;20415;-94
2023/11/27 11:58:35;;;;;;;6.70;3.40;;;;;;;4.44;48.73;99275.75;5025664;28;20028;-92
2023/11/27 12:01:07;;;;;;;5.78;2.70;;;;;;;4.31;48.27;99265.31;5028796;28;20112;-95
2023/11/27 12:03:55;;;;;;;3.35;2.10;;;;;;;4.51;46.77;99281.81;4982381;28;20137;-92
2023/11/27 12:07:05;;;;;;;2.33;1.70;;;;;;;4.51;48.40;99257.81;5000544;28;20029;-95
2023/11/27 12:09:41;;;;;;;3.65;2.38;;;;;;;4.50;48.76;99253.50;4998968;28;20097;-91
2023/11/27 12:12:15;;;;;;;3.88;2.35;;;;;;;4.55;49.43;99255.50;4984879;28;20484;-90
2023/11/27 12:15:05;;;;;;;;;;;;;;;;;;;;;
2023/11/27 12:17:50;;;;;;;3.75;2.05;;;;;;;4.60;50.07;99239.59;4993955;28;20514;-94
2023/11/27 12:20:21;;;;;;;2.42;1.98;;;;;;;4.75;47.50;99242.63;4973433;28;20002;-95
2023/11/27 12:23:14;;;;;;;3.30;2.05;;;;;;;4.68;46.89;99227.78;4984152;28;20025;-95
2023/11/27 12:26:19;;;;;;;;;;;;;;;;;;;;;
2023/11/27 12:32:33;;;;;;;3.72;2.10;;;;;;;4.57;45.50;99214.22;4966952;29;20055;-94
2023/11/27 12:35:26;;;;;;;4.97;2.85;;;;;;;4.60;46.98;99215.59;5031361;28;20182;-95
2023/11/27 12:42:18;;;;;;;6.35;4.78;;;;;;;4.72;48.18;99234.28;5011482;28;20080;-94